Norborne, Missouri
Current Conditions -  °F | °C
As of 12:15 PM on Sunday 25 Jan 2015 (Local Time) from KGPH Reporting Station
Drizzle Drizzle  
Wind Chill: 27°   Ceiling: 1300
Heat Index: 37°   Visibility: 10mi
Dew Point: 34°   Wind: 18mph
Humidity: 87%   Direction: 330°NNW
Pressure: 29.81"   Gusts: 25mph
Location:  39.3°N, 93.68°W
Report Text: KGPH 251815Z AUTO 33016G22KT 10SM -DZ OVC013 03/01 A2981 RMK AO2
Loading
Personal Weather Stations






























Interactive Weather Map New forecast layout! Learn more

10-Day Weather Forecast

Advertisements
Track Severe Weather on mobile